createdAt,value
2018-10-19T00:02:07.795Z,31.97
2018-10-19T00:04:35.079Z,35.93
2018-10-19T00:07:02.281Z,34.03
2018-10-19T00:09:29.453Z,34.17
2018-10-19T00:11:56.644Z,35.80
2018-10-19T00:14:23.836Z,34.20
2018-10-19T00:16:51.078Z,32.23
2018-10-19T00:19:18.241Z,35.90
2018-10-19T00:21:45.425Z,36.70
2018-10-19T00:24:12.597Z,38.33
2018-10-19T00:26:39.768Z,40.00
2018-10-19T00:29:06.986Z,43.13
2018-10-19T00:31:34.140Z,40.57
2018-10-19T00:34:01.300Z,37.87
2018-10-19T00:36:28.457Z,37.03
2018-10-19T00:38:55.619Z,36.03
2018-10-19T00:41:22.824Z,37.97
2018-10-19T00:43:50.017Z,36.93
2018-10-19T00:46:17.182Z,38.60
2018-10-19T00:48:44.394Z,40.97
2018-10-19T00:51:11.653Z,38.67
2018-10-19T00:53:38.796Z,41.20
2018-10-19T00:56:05.975Z,40.47
2018-10-19T00:58:33.237Z,37.53
2018-10-19T01:01:00.417Z,39.10
2018-10-19T01:03:27.585Z,41.00
2018-10-19T01:05:54.764Z,40.33
2018-10-19T01:08:21.921Z,38.13
2018-10-19T01:10:49.089Z,39.13
2018-10-19T01:13:16.273Z,40.90
2018-10-19T01:15:43.459Z,40.43
2018-10-19T01:18:10.628Z,40.23
2018-10-19T01:20:37.786Z,41.77
2018-10-19T01:23:05.049Z,43.07
2018-10-19T01:25:32.229Z,41.77
2018-10-19T01:27:59.399Z,40.67
2018-10-19T01:30:26.576Z,39.97
2018-10-19T01:32:53.788Z,39.90
2018-10-19T01:35:20.947Z,41.33
2018-10-19T01:37:48.117Z,42.00
2018-10-19T01:40:15.281Z,40.53
2018-10-19T01:42:42.480Z,40.27
2018-10-19T01:45:11.007Z,39.73
2018-10-19T01:47:38.946Z,40.77
2018-10-19T01:50:06.694Z,40.73
2018-10-19T01:52:33.893Z,42.07
2018-10-19T01:55:01.101Z,35.77
2018-10-19T01:57:28.288Z,38.07
2018-10-19T01:59:55.488Z,39.47
2018-10-19T02:02:22.664Z,35.67
2018-10-19T02:04:49.846Z,35.40
2018-10-19T02:07:17.042Z,38.73
2018-10-19T02:09:44.244Z,39.97
2018-10-19T02:12:11.474Z,37.67
2018-10-19T02:14:39.000Z,39.93
2018-10-19T02:17:06.321Z,44.87
2018-10-19T02:19:33.466Z,42.97
2018-10-19T02:22:00.642Z,43.73
2018-10-19T02:24:27.811Z,40.67
2018-10-19T02:26:54.988Z,39.30
2018-10-19T02:29:22.161Z,38.30
2018-10-19T02:31:49.381Z,39.37
2018-10-19T02:34:16.611Z,40.53
2018-10-19T02:36:43.741Z,39.03
2018-10-19T02:39:10.972Z,40.23
2018-10-19T02:41:38.096Z,39.90
2018-10-19T02:44:05.292Z,38.07
2018-10-19T02:46:32.473Z,39.90
2018-10-19T02:48:59.719Z,39.60
2018-10-19T02:51:26.896Z,39.23
2018-10-19T02:53:54.061Z,39.30
2018-10-19T02:56:21.217Z,39.77
2018-10-19T02:58:48.376Z,37.53
2018-10-19T03:01:15.783Z,38.13
2018-10-19T03:03:42.953Z,39.13
2018-10-19T03:06:10.165Z,41.13
2018-10-19T03:08:37.351Z,37.13
2018-10-19T03:11:04.884Z,39.43
2018-10-19T03:13:32.029Z,42.20
2018-10-19T03:15:59.229Z,45.30
2018-10-19T03:18:26.407Z,39.33
2018-10-19T03:20:53.593Z,42.00
2018-10-19T03:23:20.760Z,40.70
2018-10-19T03:25:47.936Z,39.50
2018-10-19T03:28:15.081Z,44.70
2018-10-19T03:30:42.347Z,46.13
2018-10-19T03:33:09.523Z,44.03
2018-10-19T03:35:36.781Z,42.67
2018-10-19T03:38:04.609Z,42.37
2018-10-19T03:40:31.786Z,40.30
2018-10-19T03:42:58.964Z,39.47
2018-10-19T03:45:26.180Z,41.17
2018-10-19T03:47:53.364Z,41.33
2018-10-19T03:50:20.560Z,46.43
2018-10-19T03:52:47.741Z,40.77
2018-10-19T03:55:14.921Z,41.10
2018-10-19T03:57:42.121Z,44.20
2018-10-19T04:00:09.293Z,41.83
2018-10-19T04:02:36.457Z,42.37
2018-10-19T04:05:03.744Z,41.03
2018-10-19T04:07:30.845Z,42.77
2018-10-19T04:09:58.029Z,37.10
2018-10-19T04:12:25.194Z,38.37
2018-10-19T04:14:52.375Z,37.70
2018-10-19T04:17:19.612Z,34.30
2018-10-19T04:19:46.782Z,36.97
2018-10-19T04:22:13.954Z,39.53
2018-10-19T04:24:41.098Z,40.23
2018-10-19T04:27:08.298Z,38.00
2018-10-19T04:29:35.461Z,38.90
2018-10-19T04:32:02.651Z,36.83
2018-10-19T04:34:29.823Z,35.63
2018-10-19T04:36:59.908Z,36.27
2018-10-19T04:39:27.104Z,34.37
2018-10-19T04:41:54.346Z,36.63
2018-10-19T04:44:21.420Z,39.60
2018-10-19T04:46:48.605Z,38.90
2018-10-19T04:49:15.765Z,37.67
2018-10-19T04:51:43.470Z,38.03
2018-10-19T04:54:10.642Z,39.43
2018-10-19T04:56:37.796Z,39.97
2018-10-19T04:59:05.416Z,41.53
2018-10-19T05:01:32.844Z,37.37
2018-10-19T05:04:00.019Z,37.30
2018-10-19T05:06:27.256Z,39.13
2018-10-19T05:08:54.468Z,39.17
2018-10-19T05:11:21.858Z,37.83
2018-10-19T05:13:48.993Z,37.67
2018-10-19T05:16:16.189Z,34.60
2018-10-19T05:18:43.360Z,34.77
2018-10-19T05:21:10.517Z,38.37
2018-10-19T05:23:37.689Z,37.17
2018-10-19T05:26:05.147Z,39.80
2018-10-19T05:28:32.233Z,39.37
2018-10-19T05:30:59.365Z,35.40
2018-10-19T05:33:26.530Z,40.97
2018-10-19T05:35:53.714Z,40.70
2018-10-19T05:38:20.875Z,38.87
2018-10-19T05:40:48.072Z,39.70
2018-10-19T05:43:15.241Z,37.07
2018-10-19T05:45:42.408Z,35.57
2018-10-19T05:48:09.560Z,36.33
2018-10-19T05:50:36.736Z,38.70
2018-10-19T05:53:04.363Z,36.53
2018-10-19T05:55:31.439Z,39.50
2018-10-19T05:57:58.606Z,36.00
2018-10-19T06:00:25.759Z,38.73
2018-10-19T06:02:52.916Z,39.50
2018-10-19T06:05:20.059Z,38.63
2018-10-19T06:07:47.211Z,41.07
2018-10-19T06:10:14.405Z,39.60
2018-10-19T06:12:41.561Z,39.57
2018-10-19T06:15:09.369Z,36.87
2018-10-19T06:17:36.562Z,35.60
2018-10-19T06:20:04.398Z,39.13
2018-10-19T06:22:31.544Z,34.73
2018-10-19T06:24:58.725Z,34.20
2018-10-19T06:27:25.921Z,39.33
2018-10-19T06:29:53.124Z,32.67
2018-10-19T06:32:20.306Z,35.80
2018-10-19T06:34:47.502Z,35.13
2018-10-19T06:37:14.776Z,33.03
2018-10-19T06:39:41.974Z,32.30
2018-10-19T06:42:09.129Z,33.57
2018-10-19T06:44:36.324Z,37.20
2018-10-19T06:47:03.661Z,35.20
2018-10-19T06:49:30.801Z,35.63
2018-10-19T06:51:57.973Z,34.83
2018-10-19T06:54:25.327Z,31.10
2018-10-19T06:56:52.514Z,33.40
2018-10-19T06:59:19.751Z,33.80
2018-10-19T07:01:46.921Z,36.13
2018-10-19T07:04:14.117Z,34.77
2018-10-19T07:06:41.325Z,34.67
2018-10-19T07:09:08.524Z,36.30
2018-10-19T07:11:35.689Z,37.30
2018-10-19T07:14:02.963Z,35.07
2018-10-19T07:16:30.237Z,33.50
2018-10-19T07:18:57.384Z,33.30
2018-10-19T07:21:24.560Z,31.60
2018-10-19T07:23:51.908Z,32.27
2018-10-19T07:26:19.133Z,33.47
2018-10-19T07:28:46.296Z,32.33
2018-10-19T07:31:13.486Z,31.50
2018-10-19T07:33:40.705Z,29.93
2018-10-19T07:36:07.887Z,30.17
2018-10-19T07:38:35.070Z,29.27
2018-10-19T07:41:02.413Z,27.93
2018-10-19T07:43:29.457Z,27.37
2018-10-19T07:45:56.636Z,29.33
2018-10-19T07:48:23.827Z,28.13
2018-10-19T07:50:50.956Z,27.13
2018-10-19T07:53:18.113Z,28.50
2018-10-19T07:55:45.285Z,26.47
2018-10-19T07:58:12.478Z,25.30
2018-10-19T08:00:39.631Z,25.27
2018-10-19T08:03:06.809Z,23.97
2018-10-19T08:05:33.964Z,24.97
2018-10-19T08:08:01.169Z,26.30
2018-10-19T08:10:28.327Z,25.40
2018-10-19T08:12:55.485Z,23.80
2018-10-19T08:15:22.653Z,23.90
2018-10-19T08:17:49.846Z,25.03
2018-10-19T08:20:17.098Z,23.43
2018-10-19T08:22:44.197Z,23.37
2018-10-19T08:25:11.348Z,23.03
2018-10-19T08:27:38.532Z,21.73
2018-10-19T08:30:05.725Z,22.83
2018-10-19T08:32:32.910Z,21.60
2018-10-19T08:35:00.083Z,22.37
2018-10-19T08:37:27.309Z,21.20
2018-10-19T08:39:54.437Z,21.37
2018-10-19T08:42:21.571Z,22.03
2018-10-19T08:44:48.744Z,21.13
2018-10-19T08:47:15.969Z,19.87
2018-10-19T08:49:43.095Z,21.60
2018-10-19T08:52:10.280Z,20.30
2018-10-19T08:54:37.534Z,21.23
2018-10-19T08:57:04.918Z,23.17
2018-10-19T08:59:32.113Z,22.53
2018-10-19T09:01:59.310Z,22.60
2018-10-19T09:04:26.481Z,23.47
2018-10-19T09:06:53.654Z,24.43
2018-10-19T09:09:20.823Z,24.00
2018-10-19T09:11:48.084Z,25.00
2018-10-19T09:14:26.832Z,26.30
2018-10-19T09:16:54.223Z,26.65
2018-10-19T09:19:21.356Z,26.68
2018-10-19T09:21:48.524Z,27.13
2018-10-19T09:24:15.668Z,27.20
2018-10-19T09:26:43.612Z,24.40
2018-10-19T09:29:11.084Z,25.20
2018-10-19T09:31:38.229Z,26.55
2018-10-19T09:34:05.397Z,26.93
2018-10-19T09:36:32.795Z,25.88
2018-10-19T09:38:59.798Z,25.90
2018-10-19T09:41:26.948Z,27.35
2018-10-19T09:43:54.077Z,27.20
2018-10-19T09:46:21.233Z,25.52
2018-10-19T09:48:48.421Z,25.10
2018-10-19T09:51:15.672Z,25.55
2018-10-19T09:53:42.782Z,26.70
2018-10-19T09:56:09.963Z,25.32
2018-10-19T09:58:37.094Z,25.17
2018-10-19T10:01:09.144Z,27.02
2018-10-19T10:03:36.241Z,27.15
2018-10-19T10:06:03.585Z,26.55
2018-10-19T10:08:30.761Z,27.65
2018-10-19T10:10:58.024Z,27.80
2018-10-19T10:13:25.185Z,27.75
2018-10-19T10:15:52.511Z,25.77
2018-10-19T10:18:19.683Z,29.00
2018-10-19T10:20:46.857Z,29.32
2018-10-19T10:23:14.036Z,28.50
2018-10-19T10:25:41.218Z,28.75
2018-10-19T10:28:08.447Z,29.37
2018-10-19T10:30:35.550Z,28.20
2018-10-19T10:33:02.773Z,29.25
2018-10-19T10:35:29.933Z,30.15
2018-10-19T10:37:57.108Z,30.00
2018-10-19T10:40:24.340Z,50.43
2018-10-19T10:42:51.515Z,30.57
2018-10-19T10:45:18.699Z,29.10
2018-10-19T10:47:45.844Z,31.57
2018-10-19T10:50:13.013Z,27.80
2018-10-19T10:52:40.196Z,28.50
2018-10-19T10:55:07.378Z,32.98
2018-10-19T10:57:34.559Z,30.45
2018-10-19T11:00:01.748Z,28.98
2018-10-19T11:02:28.925Z,29.35
2018-10-19T11:04:56.077Z,35.05
2018-10-19T11:07:23.426Z,28.47
2018-10-19T11:09:50.439Z,30.05
2018-10-19T11:12:17.625Z,29.20
2018-10-19T11:14:44.785Z,28.98
2018-10-19T11:17:12.048Z,29.18
2018-10-19T11:19:39.181Z,28.00
2018-10-19T11:22:06.376Z,27.70
2018-10-19T11:24:33.500Z,26.90
2018-10-19T11:27:00.677Z,27.15
2018-10-19T11:29:27.864Z,29.87
2018-10-19T11:31:55.307Z,26.48
2018-10-19T11:34:23.455Z,27.90
2018-10-19T11:36:50.625Z,26.20
2018-10-19T11:39:17.773Z,25.10
2018-10-19T11:41:44.972Z,27.25
2018-10-19T11:44:12.276Z,26.33
2018-10-19T11:46:39.701Z,25.50
2018-10-19T11:49:06.916Z,26.77
2018-10-19T11:51:34.104Z,26.23
2018-10-19T11:54:01.421Z,28.15
2018-10-19T11:56:28.590Z,27.82
2018-10-19T11:58:55.721Z,26.40
2018-10-19T12:01:22.900Z,27.60
2018-10-19T12:03:50.026Z,27.32
2018-10-19T12:06:17.154Z,26.33
2018-10-19T12:08:44.325Z,26.37
2018-10-19T12:11:11.486Z,26.02
2018-10-19T12:13:38.674Z,25.60
2018-10-19T12:16:06.251Z,25.10
2018-10-19T12:18:33.353Z,24.77
2018-10-19T12:21:00.770Z,26.25
2018-10-19T12:23:27.878Z,25.12
2018-10-19T12:25:55.149Z,25.82
2018-10-19T12:28:22.268Z,24.05
2018-10-19T12:30:49.409Z,24.63
2018-10-19T12:33:16.655Z,23.07
2018-10-19T12:35:43.874Z,23.20
2018-10-19T12:38:11.037Z,24.15
2018-10-19T12:40:38.185Z,24.50
2018-10-19T12:43:05.767Z,23.10
2018-10-19T12:46:40.694Z,23.22
2018-10-19T12:49:08.434Z,25.20
2018-10-19T12:51:35.810Z,25.57
2018-10-19T12:54:03.452Z,26.77
2018-10-19T12:56:30.541Z,24.92
2018-10-19T12:58:57.737Z,22.90
2018-10-19T13:01:26.153Z,23.65
2018-10-19T13:03:53.337Z,24.55
2018-10-19T13:06:20.657Z,24.40
2018-10-19T13:08:47.812Z,22.27
2018-10-19T13:11:15.216Z,23.62
2018-10-19T13:13:42.468Z,24.23
2018-10-19T13:16:09.647Z,23.42
2018-10-19T13:18:36.821Z,22.10
2018-10-19T13:21:04.037Z,23.75
2018-10-19T13:23:31.836Z,24.23
2018-10-19T13:25:59.189Z,22.60
2018-10-19T13:28:26.329Z,24.47
2018-10-19T13:30:53.799Z,22.37
2018-10-19T13:33:20.970Z,23.30
2018-10-19T13:35:48.500Z,23.20
2018-10-19T13:38:15.622Z,23.27
2018-10-19T13:40:42.802Z,23.47
2018-10-19T13:43:09.968Z,22.90
2018-10-19T13:45:37.300Z,24.60
2018-10-19T13:48:04.624Z,22.75
2018-10-19T13:50:31.960Z,24.45
2018-10-19T13:52:59.175Z,23.80
2018-10-19T13:55:26.309Z,24.95
2018-10-19T13:57:54.064Z,24.65
2018-10-19T14:00:21.277Z,22.25
2018-10-19T14:02:48.441Z,23.18
2018-10-19T14:05:15.903Z,23.55
2018-10-19T14:07:43.000Z,23.12
2018-10-19T14:10:10.753Z,23.87
2018-10-19T14:12:39.016Z,23.25
2018-10-19T14:15:06.611Z,25.43
2018-10-19T14:17:34.103Z,24.35
2018-10-19T14:20:01.459Z,23.45
2018-10-19T14:22:28.653Z,23.22
2018-10-19T14:24:55.801Z,23.85
2018-10-19T14:27:23.012Z,23.70
2018-10-19T14:29:50.156Z,23.12
2018-10-19T14:32:17.473Z,23.12
2018-10-19T14:34:45.110Z,22.65
2018-10-19T14:37:12.409Z,22.17
2018-10-19T14:39:39.993Z,23.02
2018-10-19T14:42:07.266Z,22.27
2018-10-19T14:44:34.920Z,23.52
2018-10-19T14:47:02.150Z,24.77
2018-10-19T14:49:29.228Z,23.20
2018-10-19T14:51:56.392Z,24.05
2018-10-19T14:54:23.600Z,23.27
2018-10-19T14:56:50.782Z,25.05
2018-10-19T14:59:17.917Z,22.45
2018-10-19T15:01:45.137Z,23.83
2018-10-19T15:04:12.285Z,23.15
2018-10-19T15:06:39.445Z,23.62
2018-10-19T15:09:07.755Z,23.40
2018-10-19T15:11:35.156Z,23.95
2018-10-19T15:14:02.120Z,23.73
2018-10-19T15:16:29.265Z,23.27
2018-10-19T15:18:56.555Z,23.12
2018-10-19T15:21:23.746Z,22.37
2018-10-19T15:23:50.934Z,23.50
2018-10-19T15:26:18.098Z,24.87
2018-10-19T15:28:45.264Z,22.40
2018-10-19T15:31:12.491Z,23.47
2018-10-19T15:33:39.749Z,24.00
2018-10-19T15:36:06.935Z,25.68
2018-10-19T15:38:34.098Z,22.85
2018-10-19T15:41:01.263Z,26.40
2018-10-19T15:43:28.436Z,21.73
2018-10-19T15:45:55.624Z,23.02
2018-10-19T15:48:22.809Z,21.37
2018-10-19T15:50:50.037Z,23.52
2018-10-19T15:53:17.217Z,23.50
2018-10-19T15:55:44.385Z,23.00
2018-10-19T15:58:11.580Z,23.20
2018-10-19T16:00:38.784Z,24.02
2018-10-19T16:03:06.050Z,23.90
2018-10-19T16:05:33.145Z,22.67
2018-10-19T16:08:00.325Z,24.30
2018-10-19T16:10:27.590Z,24.43
2018-10-19T16:12:54.709Z,24.63
2018-10-19T16:15:21.886Z,25.12
2018-10-19T16:17:49.192Z,25.20
2018-10-19T16:20:16.279Z,24.63
2018-10-19T16:22:43.452Z,25.02
2018-10-19T16:25:10.641Z,23.60
2018-10-19T16:27:38.663Z,23.77
2018-10-19T16:30:07.077Z,23.33
2018-10-19T16:32:34.288Z,22.80
2018-10-19T16:35:01.486Z,22.60
2018-10-19T16:37:28.661Z,23.23
2018-10-19T16:39:55.876Z,21.60
2018-10-19T16:42:23.053Z,23.03
2018-10-19T16:44:50.264Z,24.23
2018-10-19T16:47:17.443Z,21.93
2018-10-19T16:49:44.628Z,22.87
2018-10-19T16:52:11.905Z,24.47
2018-10-19T16:54:38.989Z,25.80
2018-10-19T16:57:06.200Z,24.10
2018-10-19T16:59:33.309Z,24.23
2018-10-19T17:02:00.494Z,21.73
2018-10-19T17:04:27.669Z,26.30
2018-10-19T17:06:54.861Z,24.73
2018-10-19T17:09:22.032Z,25.37
2018-10-19T17:11:49.207Z,25.73
2018-10-19T17:14:16.412Z,25.47
2018-10-19T17:16:43.568Z,26.30
2018-10-19T17:19:10.774Z,26.50
2018-10-19T17:21:37.925Z,25.70
2018-10-19T17:24:05.374Z,24.83
2018-10-19T17:26:32.584Z,26.83
2018-10-19T17:29:00.006Z,27.07
2018-10-19T17:31:27.442Z,26.60
2018-10-19T17:33:54.493Z,27.83
2018-10-19T17:36:21.673Z,26.30
2018-10-19T17:38:48.972Z,27.00
2018-10-19T17:41:16.333Z,27.43
2018-10-19T17:43:43.388Z,27.43
2018-10-19T17:46:10.528Z,29.20
2018-10-19T17:48:37.709Z,28.13
2018-10-19T17:51:04.970Z,27.17
2018-10-19T17:53:32.092Z,26.83
2018-10-19T17:55:59.281Z,27.43
2018-10-19T17:58:26.449Z,27.70
2018-10-19T18:00:53.625Z,27.57
2018-10-19T18:03:20.806Z,27.47
2018-10-19T18:05:47.984Z,29.27
2018-10-19T18:08:15.150Z,28.77
2018-10-19T18:10:42.330Z,27.33
2018-10-19T18:13:09.497Z,26.07
2018-10-19T18:15:36.702Z,27.63
2018-10-19T18:18:04.154Z,28.67
2018-10-19T18:20:31.331Z,27.73
2018-10-19T18:22:58.653Z,26.87
2018-10-19T18:25:25.677Z,27.07
2018-10-19T18:27:52.869Z,27.90
2018-10-19T18:30:20.034Z,26.63
2018-10-19T18:32:47.229Z,26.20
2018-10-19T18:35:14.471Z,28.70
2018-10-19T18:37:41.592Z,29.47
2018-10-19T18:40:10.379Z,33.40
2018-10-19T18:42:37.831Z,36.55
2018-10-19T18:45:05.265Z,34.43
2018-10-19T18:47:32.449Z,34.17
2018-10-19T18:49:59.691Z,34.97
2018-10-19T18:52:26.836Z,35.97
2018-10-19T18:54:54.065Z,34.27
2018-10-19T18:57:21.174Z,33.40
2018-10-19T18:59:48.354Z,33.50
2018-10-19T19:02:15.629Z,34.47
2018-10-19T19:04:42.782Z,34.00
2018-10-19T19:07:09.953Z,35.53
2018-10-19T19:09:37.126Z,33.80
2018-10-19T19:12:04.537Z,33.20
2018-10-19T19:14:31.768Z,31.63
2018-10-19T19:16:59.007Z,30.83
2018-10-19T19:19:26.190Z,34.37
2018-10-19T19:21:53.371Z,33.87
2018-10-19T19:24:26.400Z,34.23
2018-10-19T19:26:53.597Z,34.23
2018-10-19T19:29:20.812Z,33.77
2018-10-19T19:31:48.645Z,35.53
2018-10-19T19:34:19.618Z,34.03
2018-10-19T19:36:46.809Z,35.00
2018-10-19T19:39:14.010Z,35.30
2018-10-19T19:41:46.975Z,33.97
2018-10-19T19:44:14.189Z,34.73
2018-10-19T19:46:41.409Z,34.73
2018-10-19T19:49:14.267Z,32.77
2018-10-19T19:51:41.434Z,36.67
2018-10-19T19:54:08.623Z,37.57
2018-10-19T19:56:35.781Z,36.97
2018-10-19T19:59:03.260Z,39.07
2018-10-19T20:01:30.434Z,36.77
2018-10-19T20:03:57.725Z,36.03
2018-10-19T20:06:24.912Z,35.20
2018-10-19T20:08:52.117Z,37.33
2018-10-19T20:11:19.370Z,38.50
2018-10-19T20:13:46.577Z,40.57
2018-10-19T20:16:13.817Z,35.40
2018-10-19T20:18:40.981Z,36.73
2018-10-19T20:21:08.173Z,37.00
2018-10-19T20:23:35.366Z,34.57
2018-10-19T20:26:02.615Z,37.63
2018-10-19T20:28:29.714Z,38.33
2018-10-19T20:30:56.885Z,36.80
2018-10-19T20:33:24.080Z,38.63
2018-10-19T20:35:51.216Z,37.40
2018-10-19T20:38:18.418Z,39.17
2018-10-19T20:40:45.706Z,36.77
2018-10-19T20:43:12.822Z,36.50
2018-10-19T20:45:40.003Z,38.23
2018-10-19T20:48:07.169Z,37.83
2018-10-19T20:50:34.441Z,38.63
2018-10-19T20:53:01.749Z,37.43
2018-10-19T20:55:28.916Z,36.93
2018-10-19T20:57:56.049Z,37.43
2018-10-19T21:00:23.225Z,38.07
2018-10-19T21:02:50.452Z,39.70
2018-10-19T21:05:17.648Z,39.07
2018-10-19T21:07:44.828Z,40.20
2018-10-19T21:10:13.096Z,40.17
2018-10-19T21:12:40.351Z,39.27
2018-10-19T21:15:09.239Z,40.13
2018-10-19T21:17:36.896Z,42.07
2018-10-19T21:20:04.354Z,40.97
2018-10-19T21:22:31.552Z,40.57
2018-10-19T21:24:58.734Z,42.50
2018-10-19T21:27:26.014Z,40.50
2018-10-19T21:29:53.216Z,42.00
2018-10-19T21:32:20.372Z,41.77
2018-10-19T21:34:47.562Z,38.23
2018-10-19T21:37:14.745Z,39.27
2018-10-19T21:39:41.913Z,39.57
2018-10-19T21:42:09.126Z,40.40
2018-10-19T21:44:36.325Z,40.87
2018-10-19T21:47:03.567Z,40.40
2018-10-19T21:49:30.729Z,39.53
2018-10-19T21:51:57.956Z,37.80
2018-10-19T21:54:25.134Z,38.77
2018-10-19T21:56:52.306Z,39.37
2018-10-19T21:59:19.470Z,42.00
2018-10-19T22:01:46.761Z,40.30
2018-10-19T22:04:13.960Z,42.63
2018-10-19T22:06:41.141Z,41.97
2018-10-19T22:09:10.193Z,39.67
2018-10-19T22:11:37.880Z,40.77
2018-10-19T22:14:05.072Z,40.47
2018-10-19T22:16:32.245Z,39.40
2018-10-19T22:18:59.460Z,38.53
2018-10-19T22:21:26.605Z,38.57
2018-10-19T22:23:53.765Z,40.97
2018-10-19T22:26:21.020Z,41.40
2018-10-19T22:28:48.193Z,40.87
2018-10-19T22:31:15.426Z,41.33
2018-10-19T22:33:42.698Z,41.43
2018-10-19T22:36:09.871Z,41.37
2018-10-19T22:38:37.053Z,39.23
2018-10-19T22:41:04.358Z,42.23
2018-10-19T22:43:31.546Z,37.90
2018-10-19T22:45:58.760Z,38.80
2018-10-19T22:48:26.671Z,39.07
2018-10-19T22:50:53.870Z,40.70
2018-10-19T22:53:21.061Z,38.83
2018-10-19T22:55:48.227Z,41.67
2018-10-19T22:58:15.413Z,38.67
2018-10-19T23:00:42.592Z,38.77
2018-10-19T23:03:09.768Z,38.80
2018-10-19T23:05:36.972Z,37.83
2018-10-19T23:08:05.069Z,39.67
2018-10-19T23:10:32.244Z,39.73
2018-10-19T23:12:59.488Z,39.07
2018-10-19T23:15:26.700Z,38.90
2018-10-19T23:17:53.853Z,37.97
2018-10-19T23:20:21.066Z,40.20
2018-10-19T23:22:48.241Z,38.10
2018-10-19T23:25:15.557Z,37.93
2018-10-19T23:27:42.678Z,37.77
2018-10-19T23:30:09.872Z,40.63
2018-10-19T23:32:37.046Z,40.20
2018-10-19T23:35:05.286Z,41.23
2018-10-19T23:37:32.467Z,40.30
2018-10-19T23:39:59.673Z,40.50
2018-10-19T23:42:26.853Z,41.73
2018-10-19T23:44:54.125Z,42.47
2018-10-19T23:47:21.296Z,41.83
2018-10-19T23:49:48.473Z,42.63
2018-10-19T23:52:15.623Z,41.50
2018-10-19T23:54:42.834Z,39.33
2018-10-19T23:57:10.001Z,37.53
2018-10-19T23:59:37.751Z,37.43
